Accueil
METAR-TAF:

METAR-TAF

Aéroports :

Aéroport de Guernesey

Guernesey,

latitude: 49-26N, longitude: 002-36W, altitude: 102 m

Observation

Le bulletin a été fait il y a 51 minutes, à 19:50 UTC
Vent 6 kt de nord
Température 13°C
Humidité 94%
Pression 1028 hPa
Visibilité 10 km ou plus
Quelques nuages à une hauteur de 800 ft

METAR: EGJB 211950Z 36006KT 9999 FEW008 13/12 Q1028

Heure: 21:41 (20:41 UTC)

Prévision

Le bulletin a été fait il y a 41 minutes, à 20:00 UTC
Prévision valable du 21 à 21 UTC au 22 à 06 UTC
Vent 6 kt de nord
Visibilité 10 km ou plus
Quelques nuages à une hauteur de 4500 ft
Probabilité 30% :
Temporairement
du 22 à 01 UTC au 22 à 03 UTC
Vent 16 kt de nord/nord-est
Probabilité 30% :
Temporairement
du 22 à 02 UTC au 22 à 04 UTC
Nuages fragmentés à une hauteur de 1000 ft
pluie faible

TAF: EGJB 212000Z 2121/2206 36006KT 9999 FEW045 PROB30 TEMPO 2201/2203 03016KT PROB30 TEMPO 2202/2204 -RA BKN010

Observations et prévisions météorologiques de plus de 4000 aéroports (messages METAR et TAF).

Les stations disponibles sont représentées par des disques jaunes et rouges sur la carte.

Passer la souris dessus pour voir le nom de la station.

Cliquer dessus pour voir les observations et prévisions météorologiques.

Pour changer de carte: cliquez sur les boutons verts avec une croix noire pour zoomer, sur le bouton vert avec un tiret pour effectuer un zoom arrière, ou sur les flèches vertes pour les cartes adjacentes.


METAR-TAF: